Thorntown, IN

1:12 AM EDT on September 04, 2015 (GMT -0400)
Hawks Haven | | Change Station
CLOSE
Current Station
Personal Weather Station
Location: Lebanon, IN
Elevation: 935 ft
Nearby Weather Stations

Elev 935 ft 40.07 °N, 86.49 °W | Updated 31 seconds ago

Clear
Clear
74.1 °F
Feels Like 73 °F
N
1.7
Wind Variable Wind from WSW
Gusts 3.7 mph

Today
High -- | Low -- °F
--% Chance of Precip.
Yesterday
High -- | Low -- °F
Precip. -- in
7:16 AM 8:13 PM
Waning Gibbous, 63% visible
Pressure 29.98 in
Visibility 7.0 miles
Clouds Clear
Heat Index 73 °F
Dew Point 70 °F
Humidity 86%
Rainfall 0.00 in
Snow Depth Not available.
UV 0 out of 12
Pollen 10.60 out of 12
Air Quality Not available.
Flu Activity Not available.
METAR KTYQ 040455Z AUTO 00000KT 7SM CLR 20/18 A2998 RMK AO2 T02000180 403260175
Pressure 29.98 in
Visibility 7.0 miles
Clouds Clear
Heat Index 73 °F
Dew Point 70 °F
Humidity 86%
Rainfall 0.00 in
Snow Depth Not available.
UV 0 out of 12
Pollen 10.60 out of 12
Air Quality Not available.
Flu Activity Not available.
METAR KTYQ 040455Z AUTO 00000KT 7SM CLR 20/18 A2998 RMK AO2 T02000180 403260175

10-Day Weather Forecast

×

Almanac

Astronomy

Sep. 04, 2015 Rise Set
Actual Time
Civil Twilight
Nautical Twilight
Astronomical Twilight
Moon
Length of Visible Light
Length of Day
Tomorrow will be .
, % of the Moon is Illuminated

Today's Extremes

State Highs State Lows

Community

WunderPhotos

Upload Photos

1,852,129 photos uploaded!

WunderBlogs® & News

Nearby

Air Quality

  Air Quality AQ Index Pollutant
Not available.

Snow Depth

Station Depth Elevation

Earthquake Activity

City Distance Mag. Time & Date
Minimum magnitude displayed is 2.5.

Coastal Water Temperatures

Place Temperature

Stations

Nearby Weather Stations

Station Location Temp. Windchill Dew Point Humidity Wind Precip. Elev Updated Type